createdAt,value
2022-12-18T00:01:16.230Z,7.35
2022-12-18T00:03:43.525Z,6.80
2022-12-18T00:06:10.812Z,5.20
2022-12-18T00:11:13.625Z,5.65
2022-12-18T00:13:41.266Z,6.45
2022-12-18T00:16:11.225Z,6.43
2022-12-18T00:18:38.825Z,7.12
2022-12-18T00:21:08.471Z,8.45
2022-12-18T00:23:36.860Z,6.47
2022-12-18T00:26:08.934Z,6.82
2022-12-18T00:28:35.795Z,8.23
2022-12-18T00:33:29.467Z,5.68
2022-12-18T00:38:22.914Z,5.62
2022-12-18T00:43:16.419Z,7.97
2022-12-18T00:48:09.959Z,6.28
2022-12-18T00:53:03.533Z,7.37
2022-12-18T00:55:30.394Z,7.72
2022-12-18T01:00:24.021Z,3.85
2022-12-18T01:02:50.997Z,8.25
2022-12-18T01:05:18.185Z,7.90
2022-12-18T01:07:45.463Z,7.45
2022-12-18T01:10:13.772Z,7.95
2022-12-18T01:12:40.735Z,7.43
2022-12-18T01:15:08.402Z,5.90
2022-12-18T01:17:35.270Z,7.05
2022-12-18T01:22:28.756Z,7.22
2022-12-18T01:27:22.660Z,6.47
2022-12-18T01:32:17.044Z,7.25
2022-12-18T01:37:10.522Z,6.68
2022-12-18T01:42:04.455Z,6.18
2022-12-18T01:45:09.107Z,5.72
2022-12-18T01:47:47.173Z,7.32
2022-12-18T01:50:21.148Z,7.10
2022-12-18T01:53:00.585Z,4.35
2022-12-18T01:55:30.225Z,4.57
2022-12-18T01:58:00.443Z,5.60
2022-12-18T02:00:27.723Z,6.57
2022-12-18T02:02:55.143Z,4.97
2022-12-18T02:05:47.144Z,5.55
2022-12-18T02:08:28.654Z,4.90
2022-12-18T02:11:06.324Z,6.25
2022-12-18T02:14:06.601Z,5.78
2022-12-18T02:16:48.221Z,5.22
2022-12-18T02:19:57.353Z,6.05
2022-12-18T02:22:49.657Z,7.45
2022-12-18T02:25:54.224Z,7.18
2022-12-18T02:28:22.520Z,6.85
2022-12-18T02:30:50.554Z,6.35
2022-12-18T02:33:18.270Z,7.30
2022-12-18T02:35:46.488Z,5.68
2022-12-18T02:38:13.751Z,4.80
2022-12-18T02:40:41.726Z,5.30
2022-12-18T02:43:12.672Z,6.03
2022-12-18T02:45:57.575Z,6.37
2022-12-18T02:48:32.696Z,5.93
2022-12-18T02:51:07.430Z,5.70
2022-12-18T02:53:47.277Z,6.50
2022-12-18T02:56:18.546Z,5.97
2022-12-18T02:58:56.331Z,6.80
2022-12-18T03:01:40.427Z,6.85
2022-12-18T03:04:18.477Z,7.20
2022-12-18T03:06:49.369Z,7.03
2022-12-18T03:09:20.805Z,6.93
2022-12-18T03:12:09.865Z,6.60
2022-12-18T03:14:38.675Z,6.43
2022-12-18T03:17:07.418Z,7.20
2022-12-18T03:19:35.425Z,7.07
2022-12-18T03:22:04.916Z,7.37
2022-12-18T03:24:33.020Z,6.90
2022-12-18T03:27:02.681Z,7.22
2022-12-18T03:29:36.511Z,6.50
2022-12-18T03:32:07.611Z,6.00
2022-12-18T03:34:36.770Z,6.25
2022-12-18T03:37:03.831Z,6.45
2022-12-18T03:39:30.758Z,6.37
2022-12-18T03:42:08.901Z,7.12
2022-12-18T03:44:57.628Z,6.75
2022-12-18T03:47:31.586Z,7.00
2022-12-18T03:50:16.890Z,6.75
2022-12-18T03:53:10.810Z,6.45
2022-12-18T03:55:37.892Z,6.30
2022-12-18T03:58:07.399Z,6.85
2022-12-18T04:00:35.080Z,5.75
2022-12-18T04:03:03.513Z,6.68
2022-12-18T04:05:31.178Z,6.70
2022-12-18T04:07:58.177Z,7.75
2022-12-18T04:10:25.102Z,8.32
2022-12-18T04:12:51.977Z,8.15
2022-12-18T04:15:18.937Z,6.62
2022-12-18T04:17:50.017Z,6.55
2022-12-18T04:20:17.343Z,6.87
2022-12-18T04:22:44.222Z,6.15
2022-12-18T04:25:11.031Z,6.10
2022-12-18T04:30:05.156Z,5.30
2022-12-18T04:32:32.018Z,5.37
2022-12-18T04:34:58.885Z,6.37
2022-12-18T04:37:25.723Z,6.25
2022-12-18T04:42:19.284Z,4.78
2022-12-18T04:44:46.128Z,5.90
2022-12-18T04:47:12.945Z,5.53
2022-12-18T04:52:06.420Z,5.18
2022-12-18T04:56:59.875Z,5.18
2022-12-18T05:01:53.525Z,5.10
2022-12-18T05:04:20.464Z,5.80
2022-12-18T05:06:47.356Z,6.12
2022-12-18T05:09:15.093Z,6.28
2022-12-18T05:11:41.927Z,6.50
2022-12-18T05:16:35.466Z,5.43
2022-12-18T05:19:02.330Z,5.65
2022-12-18T05:23:55.829Z,6.45
2022-12-18T05:26:22.680Z,6.53
2022-12-18T05:28:49.536Z,7.07
2022-12-18T05:31:16.501Z,6.53
2022-12-18T05:33:44.095Z,6.57
2022-12-18T05:36:11.242Z,6.87
2022-12-18T05:38:39.655Z,7.32
2022-12-18T05:41:07.325Z,7.15
2022-12-18T05:43:37.628Z,9.10
2022-12-18T05:46:10.383Z,8.05
2022-12-18T05:48:37.245Z,8.38
2022-12-18T05:53:35.501Z,7.78
2022-12-18T05:56:04.849Z,8.65
2022-12-18T05:58:32.117Z,10.90
2022-12-18T06:00:59.623Z,8.98
2022-12-18T06:03:32.197Z,9.38
2022-12-18T06:06:00.649Z,9.13
2022-12-18T06:08:27.460Z,9.85
2022-12-18T06:13:21.831Z,10.02
2022-12-18T06:15:48.742Z,11.85
2022-12-18T06:18:15.704Z,10.73
2022-12-18T06:20:42.622Z,11.32
2022-12-18T06:23:10.508Z,10.80
2022-12-18T06:25:40.035Z,10.27
2022-12-18T06:28:06.907Z,10.43
2022-12-18T06:30:33.851Z,11.05
2022-12-18T06:33:00.745Z,8.77
2022-12-18T06:35:27.584Z,9.68
2022-12-18T06:37:54.431Z,10.18
2022-12-18T06:40:21.427Z,9.32
2022-12-18T06:42:48.257Z,9.50
2022-12-18T06:47:41.783Z,8.70
2022-12-18T06:50:08.890Z,10.10
2022-12-18T06:52:35.791Z,8.95
2022-12-18T06:55:02.664Z,14.32
2022-12-18T06:57:29.602Z,15.02
2022-12-18T06:59:56.460Z,14.87
2022-12-18T07:02:23.468Z,11.93
2022-12-18T07:04:50.348Z,12.05
2022-12-18T07:09:43.847Z,12.77
2022-12-18T07:12:10.702Z,11.45
2022-12-18T07:17:04.320Z,11.05
2022-12-18T07:19:31.296Z,12.02
2022-12-18T07:21:59.239Z,11.88
2022-12-18T07:24:26.054Z,11.05
2022-12-18T07:29:19.542Z,9.48
2022-12-18T07:31:46.465Z,9.85
2022-12-18T07:34:14.714Z,10.93
2022-12-18T07:36:41.717Z,10.35
2022-12-18T07:39:08.784Z,11.55
2022-12-18T07:41:35.629Z,9.75
2022-12-18T07:46:29.141Z,9.20
2022-12-18T07:48:55.975Z,10.90
2022-12-18T07:53:52.165Z,9.75
2022-12-18T07:56:29.081Z,9.70
2022-12-18T07:58:57.633Z,10.43
2022-12-18T08:01:24.842Z,9.52
2022-12-18T08:03:52.417Z,10.45
2022-12-18T08:06:24.099Z,11.05
2022-12-18T08:08:53.590Z,12.07
2022-12-18T08:11:20.470Z,10.52
2022-12-18T08:13:48.392Z,10.27
2022-12-18T08:16:16.284Z,10.80
2022-12-18T08:18:43.130Z,10.90
2022-12-18T08:23:44.173Z,10.25
2022-12-18T08:26:12.490Z,10.85
2022-12-18T08:28:39.473Z,10.77
2022-12-18T08:31:06.907Z,11.10
2022-12-18T08:33:34.460Z,10.90
2022-12-18T08:36:01.893Z,11.07
2022-12-18T08:38:28.853Z,11.68
2022-12-18T08:41:03.475Z,12.20
2022-12-18T08:43:48.696Z,11.98
2022-12-18T08:46:15.775Z,11.38
2022-12-18T08:48:42.937Z,11.43
2022-12-18T08:51:10.780Z,12.37
2022-12-18T08:53:38.368Z,11.50
2022-12-18T08:56:06.455Z,10.90
2022-12-18T08:58:33.295Z,9.95
2022-12-18T09:01:05.280Z,9.88
2022-12-18T09:03:32.716Z,10.32
2022-12-18T09:05:59.777Z,9.82
2022-12-18T09:08:27.270Z,9.68
2022-12-18T09:10:54.145Z,8.65
2022-12-18T09:13:20.991Z,9.35
2022-12-18T09:18:16.720Z,9.90
2022-12-18T09:20:43.936Z,8.32
2022-12-18T09:23:11.576Z,8.73
2022-12-18T09:25:38.986Z,9.13
2022-12-18T09:28:14.158Z,8.45
2022-12-18T09:30:42.405Z,8.93
2022-12-18T09:33:09.397Z,8.75
2022-12-18T09:35:39.969Z,8.88
2022-12-18T09:38:07.144Z,9.82
2022-12-18T09:40:55.199Z,9.10
2022-12-18T09:43:28.386Z,8.73
2022-12-18T09:46:03.090Z,9.00
2022-12-18T09:48:33.410Z,8.13
2022-12-18T09:51:05.342Z,7.70
2022-12-18T09:53:34.718Z,7.72
2022-12-18T09:56:02.056Z,7.62
2022-12-18T09:58:45.457Z,7.72
2022-12-18T10:01:24.014Z,7.55
2022-12-18T10:03:51.636Z,7.97
2022-12-18T10:06:35.775Z,8.23
2022-12-18T10:09:21.878Z,8.32
2022-12-18T10:12:07.713Z,8.43
2022-12-18T10:14:45.664Z,8.43
2022-12-18T10:17:29.931Z,9.10
2022-12-18T10:19:56.778Z,8.43
2022-12-18T10:22:29.025Z,7.80
2022-12-18T10:25:33.327Z,7.55
2022-12-18T10:28:09.312Z,7.57
2022-12-18T10:30:36.198Z,7.60
2022-12-18T10:33:04.239Z,7.12
2022-12-18T10:35:31.121Z,7.22
2022-12-18T10:38:13.081Z,6.93
2022-12-18T10:40:58.149Z,6.10
2022-12-18T10:43:28.473Z,6.50
2022-12-18T10:46:09.839Z,7.18
2022-12-18T10:48:49.312Z,5.57
2022-12-18T10:51:34.895Z,6.10
2022-12-18T10:54:20.947Z,5.95
2022-12-18T10:56:48.369Z,6.10
2022-12-18T10:59:17.399Z,5.05
2022-12-18T11:01:47.184Z,5.47
2022-12-18T11:04:22.116Z,5.40
2022-12-18T11:07:05.992Z,5.87
2022-12-18T11:09:33.538Z,6.10
2022-12-18T11:12:15.716Z,6.40
2022-12-18T11:14:46.727Z,6.72
2022-12-18T11:17:30.144Z,5.95
2022-12-18T11:19:58.925Z,7.37
2022-12-18T11:22:31.003Z,6.87
2022-12-18T11:27:56.557Z,5.82
2022-12-18T11:30:27.494Z,9.43
2022-12-18T11:33:04.484Z,9.80
2022-12-18T11:35:34.280Z,9.57
2022-12-18T11:38:08.472Z,9.07
2022-12-18T11:40:41.313Z,12.50
2022-12-18T11:43:17.290Z,11.32
2022-12-18T11:45:54.134Z,11.60
2022-12-18T11:48:26.555Z,13.23
2022-12-18T11:50:58.031Z,12.52
2022-12-18T11:53:26.493Z,13.40
2022-12-18T11:56:05.907Z,12.43
2022-12-18T11:58:38.761Z,10.77
2022-12-18T12:01:36.500Z,11.05
2022-12-18T12:04:10.280Z,12.30
2022-12-18T12:06:41.339Z,11.35
2022-12-18T12:09:20.027Z,11.00
2022-12-18T12:11:55.910Z,10.10
2022-12-18T12:14:37.698Z,10.02
2022-12-18T12:17:23.291Z,10.35
2022-12-18T12:20:00.343Z,9.45
2022-12-18T12:23:07.352Z,10.07
2022-12-18T12:26:07.504Z,9.90
2022-12-18T12:29:04.271Z,9.65
2022-12-18T12:31:43.110Z,10.65
2022-12-18T12:34:21.814Z,10.70
2022-12-18T12:36:54.364Z,10.48
2022-12-18T12:39:24.738Z,9.82
2022-12-18T12:42:10.274Z,9.27
2022-12-18T12:44:51.257Z,9.60
2022-12-18T12:47:28.399Z,9.07
2022-12-18T12:49:57.986Z,8.02
2022-12-18T12:52:32.611Z,8.43
2022-12-18T12:55:00.271Z,9.00
2022-12-18T12:57:40.823Z,9.45
2022-12-18T13:00:11.718Z,9.10
2022-12-18T13:03:09.577Z,9.43
2022-12-18T13:06:09.231Z,9.52
2022-12-18T13:08:57.547Z,8.52
2022-12-18T13:11:59.749Z,9.82
2022-12-18T13:14:27.115Z,9.40
2022-12-18T13:17:26.347Z,11.75
2022-12-18T13:20:05.642Z,10.95
2022-12-18T13:22:50.223Z,11.85
2022-12-18T13:25:36.717Z,11.65
2022-12-18T13:28:14.593Z,11.15
2022-12-18T13:30:47.523Z,11.10
2022-12-18T13:33:21.034Z,10.98
2022-12-18T13:35:48.048Z,10.75
2022-12-18T13:38:22.447Z,10.20
2022-12-18T13:40:49.230Z,11.12
2022-12-18T13:46:07.358Z,11.98
2022-12-18T13:48:38.182Z,12.32
2022-12-18T13:51:10.767Z,12.88
2022-12-18T13:53:44.123Z,12.32
2022-12-18T13:56:17.197Z,13.25
2022-12-18T13:58:44.237Z,13.95
2022-12-18T14:01:25.730Z,11.68
2022-12-18T14:03:52.768Z,11.25
2022-12-18T14:06:19.815Z,11.12
2022-12-18T14:08:48.049Z,12.20
2022-12-18T14:11:23.911Z,11.77
2022-12-18T14:13:53.718Z,12.73
2022-12-18T14:16:21.007Z,11.68
2022-12-18T14:18:53.292Z,10.18
2022-12-18T14:21:23.293Z,12.48
2022-12-18T14:23:50.632Z,12.55
2022-12-18T14:26:31.469Z,12.63
2022-12-18T14:29:02.224Z,13.60
2022-12-18T14:31:32.052Z,12.13
2022-12-18T14:33:59.022Z,13.30
2022-12-18T14:36:30.441Z,11.32
2022-12-18T14:38:59.070Z,12.25
2022-12-18T14:41:26.870Z,13.27
2022-12-18T14:43:55.146Z,12.88
2022-12-18T14:46:35.831Z,12.90
2022-12-18T14:49:19.385Z,12.85
2022-12-18T14:51:55.439Z,11.82
2022-12-18T14:54:24.058Z,12.15
2022-12-18T14:56:56.269Z,13.35
2022-12-18T14:59:25.218Z,14.85
2022-12-18T15:01:59.824Z,15.73
2022-12-18T15:04:37.319Z,17.73
2022-12-18T15:07:23.325Z,19.63
2022-12-18T15:10:04.906Z,17.52
2022-12-18T15:12:45.160Z,16.17
2022-12-18T15:15:37.137Z,15.13
2022-12-18T15:18:11.527Z,14.85
2022-12-18T15:21:00.416Z,14.65
2022-12-18T15:23:29.990Z,17.85
2022-12-18T15:26:04.054Z,18.15
2022-12-18T15:28:36.541Z,23.67
2022-12-18T15:31:04.662Z,51.85
2022-12-18T15:33:35.061Z,54.30
2022-12-18T15:36:04.863Z,44.97
2022-12-18T15:38:32.303Z,39.47
2022-12-18T15:40:59.212Z,40.20
2022-12-18T15:43:36.340Z,48.28
2022-12-18T15:46:19.653Z,52.30
2022-12-18T15:48:49.478Z,34.10
2022-12-18T15:51:35.961Z,29.45
2022-12-18T15:54:06.348Z,28.58
2022-12-18T15:56:52.193Z,29.73
2022-12-18T15:59:21.115Z,30.23
2022-12-18T16:01:50.176Z,29.73
2022-12-18T16:04:18.978Z,34.58
2022-12-18T16:07:13.295Z,32.85
2022-12-18T16:09:32.623Z,38.90
2022-12-18T16:14:29.760Z,63.67
2022-12-18T16:17:01.017Z,45.63
2022-12-18T16:19:28.810Z,51.83
2022-12-18T16:21:57.334Z,49.63
2022-12-18T16:24:29.858Z,44.72
2022-12-18T16:26:59.904Z,52.83
2022-12-18T16:29:28.748Z,65.78
2022-12-18T16:31:56.558Z,64.12
2022-12-18T16:34:29.564Z,66.03
2022-12-18T16:37:04.814Z,48.35
2022-12-18T16:39:34.250Z,53.28
2022-12-18T16:42:05.648Z,55.45
2022-12-18T16:44:32.690Z,55.55
2022-12-18T16:49:30.738Z,50.05
2022-12-18T16:51:57.973Z,48.15
2022-12-18T16:54:25.221Z,49.22
2022-12-18T16:56:52.552Z,49.35
2022-12-18T16:59:19.898Z,45.70
2022-12-18T17:01:47.466Z,50.08
2022-12-18T17:04:15.390Z,53.00
2022-12-18T17:06:44.195Z,47.17
2022-12-18T17:09:16.223Z,44.28
2022-12-18T17:11:43.599Z,40.10
2022-12-18T17:14:21.574Z,33.75
2022-12-18T17:16:57.783Z,27.42
2022-12-18T17:19:35.455Z,26.80
2022-12-18T17:22:02.694Z,26.33
2022-12-18T17:24:34.566Z,28.77
2022-12-18T17:27:02.517Z,29.48
2022-12-18T17:29:29.427Z,30.70
2022-12-18T17:31:56.306Z,32.80
2022-12-18T17:34:24.644Z,22.30
2022-12-18T17:36:51.515Z,29.17
2022-12-18T17:39:20.672Z,26.75
2022-12-18T17:41:48.900Z,27.83
2022-12-18T17:44:16.728Z,32.85
2022-12-18T17:46:44.019Z,30.17
2022-12-18T17:49:11.528Z,32.50
2022-12-18T17:51:38.390Z,32.88
2022-12-18T17:54:05.630Z,24.35
2022-12-18T17:56:33.094Z,21.05
2022-12-18T17:59:00.282Z,22.10
2022-12-18T18:01:27.809Z,28.15
2022-12-18T18:03:58.112Z,33.30
2022-12-18T18:06:25.064Z,28.65
2022-12-18T18:11:39.403Z,28.62
2022-12-18T18:14:14.269Z,33.30
2022-12-18T18:16:44.034Z,40.25
2022-12-18T18:19:16.604Z,36.22
2022-12-18T18:21:45.466Z,34.95
2022-12-18T18:24:15.769Z,47.22
2022-12-18T18:26:42.702Z,48.80
2022-12-18T18:29:11.830Z,57.58
2022-12-18T18:31:41.004Z,67.18
2022-12-18T18:34:13.341Z,54.42
2022-12-18T18:36:40.177Z,50.88
2022-12-18T18:41:35.217Z,41.10
2022-12-18T18:44:02.075Z,30.83
2022-12-18T18:48:56.031Z,27.60
2022-12-18T18:51:23.367Z,34.45
2022-12-18T18:53:51.906Z,35.72
2022-12-18T18:59:08.340Z,20.60
2022-12-18T19:01:35.421Z,15.63
2022-12-18T19:04:02.466Z,19.20
2022-12-18T19:06:29.913Z,27.00
2022-12-18T19:08:58.732Z,23.58
2022-12-18T19:11:45.529Z,25.60
2022-12-18T19:14:14.980Z,24.20
2022-12-18T19:16:43.266Z,27.27
2022-12-18T19:19:10.271Z,23.05
2022-12-18T19:21:38.344Z,22.48
2022-12-18T19:24:06.153Z,24.63
2022-12-18T19:26:33.075Z,19.33
2022-12-18T19:29:07.049Z,18.80
2022-12-18T19:31:36.433Z,21.65
2022-12-18T19:34:05.614Z,20.23
2022-12-18T19:36:33.148Z,18.15
2022-12-18T19:39:01.865Z,20.85
2022-12-18T19:41:31.255Z,21.40
2022-12-18T19:44:00.217Z,21.35
2022-12-18T19:46:29.277Z,24.83
2022-12-18T19:48:56.117Z,22.08
2022-12-18T19:56:26.976Z,25.60
2022-12-18T19:58:54.631Z,25.77
2022-12-18T20:01:23.100Z,24.25
2022-12-18T20:03:52.322Z,21.77
2022-12-18T20:06:25.788Z,29.75
2022-12-18T20:08:58.339Z,27.00
2022-12-18T20:11:29.503Z,39.55
2022-12-18T20:13:57.085Z,51.45
2022-12-18T20:16:24.065Z,35.67
2022-12-18T20:18:51.424Z,30.00
2022-12-18T20:21:19.267Z,23.17
2022-12-18T20:23:46.237Z,24.63
2022-12-18T20:26:13.185Z,29.15
2022-12-18T20:28:40.636Z,47.10
2022-12-18T20:31:13.508Z,54.33
2022-12-18T20:33:41.433Z,66.72
2022-12-18T20:36:11.396Z,66.97
2022-12-18T20:38:39.308Z,64.30
2022-12-18T20:41:19.003Z,70.47
2022-12-18T20:43:46.094Z,74.60
2022-12-18T20:46:14.471Z,91.07
2022-12-18T20:48:42.275Z,96.22
2022-12-18T20:51:11.837Z,97.40
2022-12-18T20:53:40.400Z,78.05
2022-12-18T20:56:17.739Z,56.85
2022-12-18T20:58:49.589Z,35.90
2022-12-18T21:01:19.259Z,55.45
2022-12-18T21:03:46.858Z,46.78
2022-12-18T21:06:15.549Z,57.15
2022-12-18T21:08:42.600Z,48.35
2022-12-18T21:11:54.139Z,24.70
2022-12-18T21:14:23.794Z,23.80
2022-12-18T21:16:51.396Z,40.20
2022-12-18T21:19:20.641Z,46.30
2022-12-18T21:21:47.596Z,45.53
2022-12-18T21:24:14.549Z,29.25
2022-12-18T21:26:45.912Z,28.50
2022-12-18T21:29:20.637Z,31.62
2022-12-18T21:31:47.647Z,27.65
2022-12-18T21:34:20.377Z,36.50
2022-12-18T21:36:47.849Z,42.60
2022-12-18T21:39:16.047Z,42.30
2022-12-18T21:42:01.695Z,32.58
2022-12-18T21:44:29.046Z,32.70
2022-12-18T21:47:00.613Z,28.40
2022-12-18T21:49:30.810Z,26.70
2022-12-18T21:51:59.033Z,41.47
2022-12-18T21:54:27.144Z,51.75
2022-12-18T21:56:56.385Z,53.70
2022-12-18T21:59:28.068Z,58.03
2022-12-18T22:01:57.617Z,53.65
2022-12-18T22:04:25.427Z,91.30
2022-12-18T22:06:52.753Z,89.62
2022-12-18T22:09:22.094Z,94.97
2022-12-18T22:11:50.007Z,83.15
2022-12-18T22:14:17.384Z,80.72
2022-12-18T22:16:44.233Z,78.20
2022-12-18T22:19:12.652Z,66.15
2022-12-18T22:21:45.498Z,66.65
2022-12-18T22:24:15.972Z,58.53
2022-12-18T22:26:43.129Z,64.55
2022-12-18T22:29:36.715Z,61.25
2022-12-18T22:32:05.063Z,79.53
2022-12-18T22:34:36.491Z,88.50
2022-12-18T22:37:03.540Z,82.68
2022-12-18T22:39:31.232Z,78.43
2022-12-18T22:41:58.949Z,81.50
2022-12-18T22:44:25.864Z,75.87
2022-12-18T22:47:05.575Z,48.40
2022-12-18T22:49:35.068Z,54.67
2022-12-18T22:52:03.063Z,63.03
2022-12-18T22:54:30.014Z,56.00
2022-12-18T22:56:57.313Z,54.78
2022-12-18T22:59:24.487Z,49.25
2022-12-18T23:01:52.465Z,44.53
2022-12-18T23:04:23.943Z,56.45
2022-12-18T23:06:52.975Z,69.37
2022-12-18T23:09:20.531Z,78.70
2022-12-18T23:11:48.000Z,75.43
2022-12-18T23:14:14.943Z,57.67
2022-12-18T23:16:41.891Z,55.28
2022-12-18T23:19:10.438Z,56.33
2022-12-18T23:21:37.331Z,44.75
2022-12-18T23:24:04.489Z,38.55
2022-12-18T23:26:31.874Z,39.67
2022-12-18T23:28:58.736Z,37.55
2022-12-18T23:31:28.532Z,41.25
2022-12-18T23:33:56.988Z,34.83
2022-12-18T23:36:24.721Z,46.20
2022-12-18T23:38:57.032Z,42.25
2022-12-18T23:41:26.726Z,47.70
2022-12-18T23:43:54.344Z,37.95
2022-12-18T23:46:24.296Z,33.88
2022-12-18T23:48:51.664Z,33.00
2022-12-18T23:51:20.480Z,37.05
2022-12-18T23:53:47.372Z,35.10
2022-12-18T23:56:14.816Z,32.20
2022-12-18T23:58:42.656Z,29.75
